sensor_id;sensor_type;location;lat;lon;timestamp;pressure;altitude;pressure_sealevel;temperature;humidity
9764;BME280;4921;43.214;27.936;2023-09-19T00:02:08;101375.56;;;22.58;89.56
9764;BME280;4921;43.214;27.936;2023-09-19T00:04:36;101368.22;;;22.60;89.24
9764;BME280;4921;43.214;27.936;2023-09-19T00:07:05;101368.22;;;22.60;88.95
9764;BME280;4921;43.214;27.936;2023-09-19T00:09:32;101367.22;;;22.61;89.16
9764;BME280;4921;43.214;27.936;2023-09-19T00:12:04;101367.41;;;22.60;88.75
9764;BME280;4921;43.214;27.936;2023-09-19T00:14:31;101366.56;;;22.59;87.86
9764;BME280;4921;43.214;27.936;2023-09-19T00:17:00;101364.84;;;22.58;87.69
9764;BME280;4921;43.214;27.936;2023-09-19T00:19:31;101359.03;;;22.55;87.14
9764;BME280;4921;43.214;27.936;2023-09-19T00:22:00;101361.06;;;22.53;87.00
9764;BME280;4921;43.214;27.936;2023-09-19T00:24:28;101361.41;;;22.50;87.07
9764;BME280;4921;43.214;27.936;2023-09-19T00:26:56;101357.88;;;22.49;87.45
9764;BME280;4921;43.214;27.936;2023-09-19T00:29:25;101356.41;;;22.47;87.11
9764;BME280;4921;43.214;27.936;2023-09-19T00:31:55;101358.06;;;22.48;87.04
9764;BME280;4921;43.214;27.936;2023-09-19T00:34:22;101351.06;;;22.47;86.88
9764;BME280;4921;43.214;27.936;2023-09-19T00:36:50;101351.72;;;22.49;86.57
9764;BME280;4921;43.214;27.936;2023-09-19T00:39:21;101351.72;;;22.49;86.60
9764;BME280;4921;43.214;27.936;2023-09-19T00:41:51;101350.41;;;22.45;86.45
9764;BME280;4921;43.214;27.936;2023-09-19T00:44:18;101345.03;;;22.45;86.29
9764;BME280;4921;43.214;27.936;2023-09-19T00:46:46;101348.53;;;22.45;86.33
9764;BME280;4921;43.214;27.936;2023-09-19T00:49:15;101351.06;;;22.47;86.20
9764;BME280;4921;43.214;27.936;2023-09-19T00:51:43;101353.91;;;22.45;86.35
9764;BME280;4921;43.214;27.936;2023-09-19T00:54:13;101351.59;;;22.42;86.37
9764;BME280;4921;43.214;27.936;2023-09-19T00:56:45;101356.31;;;22.40;86.83
9764;BME280;4921;43.214;27.936;2023-09-19T00:59:14;101359.00;;;22.40;87.51
9764;BME280;4921;43.214;27.936;2023-09-19T01:01:41;101355.66;;;22.38;87.19
9764;BME280;4921;43.214;27.936;2023-09-19T01:04:11;101350.47;;;22.37;87.36
9764;BME280;4921;43.214;27.936;2023-09-19T01:06:39;101344.09;;;22.38;87.06
9764;BME280;4921;43.214;27.936;2023-09-19T01:09:06;101353.03;;;22.30;88.06
9764;BME280;4921;43.214;27.936;2023-09-19T01:11:37;101351.38;;;22.29;88.14
9764;BME280;4921;43.214;27.936;2023-09-19T01:14:15;101349.88;;;22.27;88.53
9764;BME280;4921;43.214;27.936;2023-09-19T01:16:56;101360.78;;;22.25;88.22
9764;BME280;4921;43.214;27.936;2023-09-19T01:19:53;101344.06;;;22.23;88.04
9764;BME280;4921;43.214;27.936;2023-09-19T01:22:37;101343.16;;;22.08;88.58
9764;BME280;4921;43.214;27.936;2023-09-19T01:25:34;101336.47;;;22.04;89.41
9764;BME280;4921;43.214;27.936;2023-09-19T01:28:19;101335.88;;;21.94;90.46
9764;BME280;4921;43.214;27.936;2023-09-19T01:30:52;101333.75;;;21.89;90.96
9764;BME280;4921;43.214;27.936;2023-09-19T01:33:23;101339.84;;;21.75;92.73
9764;BME280;4921;43.214;27.936;2023-09-19T01:35:51;101336.50;;;21.73;93.07
9764;BME280;4921;43.214;27.936;2023-09-19T01:38:23;101332.34;;;21.71;93.73
9764;BME280;4921;43.214;27.936;2023-09-19T01:40:57;101341.38;;;21.70;94.16
9764;BME280;4921;43.214;27.936;2023-09-19T01:43:33;101348.41;;;21.71;94.15
9764;BME280;4921;43.214;27.936;2023-09-19T01:46:11;101340.00;;;21.74;94.08
9764;BME280;4921;43.214;27.936;2023-09-19T01:48:42;101341.88;;;21.73;93.84
9764;BME280;4921;43.214;27.936;2023-09-19T01:51:19;101347.03;;;21.75;94.08
9764;BME280;4921;43.214;27.936;2023-09-19T01:53:53;101348.03;;;21.74;94.40
9764;BME280;4921;43.214;27.936;2023-09-19T01:56:28;101343.50;;;21.74;94.71
9764;BME280;4921;43.214;27.936;2023-09-19T01:59:02;101341.22;;;21.71;94.44
9764;BME280;4921;43.214;27.936;2023-09-19T02:01:33;101333.19;;;21.63;95.62
9764;BME280;4921;43.214;27.936;2023-09-19T02:04:04;101336.91;;;21.62;95.99
9764;BME280;4921;43.214;27.936;2023-09-19T02:06:31;101340.88;;;21.66;96.00
9764;BME280;4921;43.214;27.936;2023-09-19T02:08:59;101341.72;;;21.67;95.91
9764;BME280;4921;43.214;27.936;2023-09-19T02:11:28;101343.50;;;21.74;96.09
9764;BME280;4921;43.214;27.936;2023-09-19T02:13:55;101343.69;;;21.73;95.94
9764;BME280;4921;43.214;27.936;2023-09-19T02:16:22;101344.03;;;21.70;95.56
9764;BME280;4921;43.214;27.936;2023-09-19T02:18:51;101340.38;;;21.71;95.34
9764;BME280;4921;43.214;27.936;2023-09-19T02:21:18;101341.88;;;21.65;96.16
9764;BME280;4921;43.214;27.936;2023-09-19T02:23:47;101338.94;;;21.52;97.21
9764;BME280;4921;43.214;27.936;2023-09-19T02:26:14;101342.84;;;21.42;98.21
9764;BME280;4921;43.214;27.936;2023-09-19T02:28:41;101344.53;;;21.43;98.70
9764;BME280;4921;43.214;27.936;2023-09-19T02:31:09;101340.53;;;21.39;98.51
9764;BME280;4921;43.214;27.936;2023-09-19T02:33:36;101336.38;;;21.36;99.48
9764;BME280;4921;43.214;27.936;2023-09-19T02:36:05;101333.69;;;21.36;99.50
9764;BME280;4921;43.214;27.936;2023-09-19T02:38:33;101331.34;;;21.33;99.93
9764;BME280;4921;43.214;27.936;2023-09-19T02:41:00;101309.88;;;21.10;100.00
9764;BME280;4921;43.214;27.936;2023-09-19T02:43:27;101340.91;;;21.27;100.00
9764;BME280;4921;43.214;27.936;2023-09-19T02:45:55;101332.09;;;21.19;100.00
9764;BME280;4921;43.214;27.936;2023-09-19T02:48:22;101331.94;;;21.12;100.00
9764;BME280;4921;43.214;27.936;2023-09-19T02:50:51;101327.25;;;20.98;100.00
9764;BME280;4921;43.214;27.936;2023-09-19T02:53:19;101325.78;;;20.96;100.00
9764;BME280;4921;43.214;27.936;2023-09-19T02:55:46;101329.63;;;20.93;100.00
9764;BME280;4921;43.214;27.936;2023-09-19T02:58:13;101331.66;;;20.91;100.00
9764;BME280;4921;43.214;27.936;2023-09-19T03:00:41;101331.13;;;20.88;100.00
9764;BME280;4921;43.214;27.936;2023-09-19T03:03:12;101331.00;;;20.89;100.00
9764;BME280;4921;43.214;27.936;2023-09-19T03:05:41;101309.59;;;20.81;100.00
9764;BME280;4921;43.214;27.936;2023-09-19T03:08:13;101328.97;;;20.91;100.00
9764;BME280;4921;43.214;27.936;2023-09-19T03:10:46;101325.97;;;20.86;100.00
9764;BME280;4921;43.214;27.936;2023-09-19T03:13:14;101331.31;;;20.86;100.00
9764;BME280;4921;43.214;27.936;2023-09-19T03:15:41;101330.19;;;20.81;100.00
9764;BME280;4921;43.214;27.936;2023-09-19T03:18:09;101330.69;;;20.76;100.00
9764;BME280;4921;43.214;27.936;2023-09-19T03:20:36;101327.69;;;20.71;100.00
9764;BME280;4921;43.214;27.936;2023-09-19T03:23:04;101331.53;;;20.69;100.00
9764;BME280;4921;43.214;27.936;2023-09-19T03:25:33;101336.53;;;20.72;100.00
9764;BME280;4921;43.214;27.936;2023-09-19T03:28:03;101338.19;;;20.73;100.00
9764;BME280;4921;43.214;27.936;2023-09-19T03:30:32;101338.69;;;20.68;100.00
9764;BME280;4921;43.214;27.936;2023-09-19T03:33:00;101336.72;;;20.62;100.00
9764;BME280;4921;43.214;27.936;2023-09-19T03:35:27;101342.72;;;20.64;100.00
9764;BME280;4921;43.214;27.936;2023-09-19T03:37:54;101337.38;;;20.64;100.00
9764;BME280;4921;43.214;27.936;2023-09-19T03:40:21;101331.72;;;20.51;100.00
9764;BME280;4921;43.214;27.936;2023-09-19T03:42:48;101339.06;;;20.57;100.00
9764;BME280;4921;43.214;27.936;2023-09-19T03:45:17;101340.53;;;20.60;100.00
9764;BME280;4921;43.214;27.936;2023-09-19T03:47:44;101341.75;;;20.57;100.00
9764;BME280;4921;43.214;27.936;2023-09-19T03:50:12;101339.59;;;20.52;100.00
9764;BME280;4921;43.214;27.936;2023-09-19T03:52:42;101345.91;;;20.51;100.00
9764;BME280;4921;43.214;27.936;2023-09-19T03:55:09;101339.91;;;20.49;100.00
9764;BME280;4921;43.214;27.936;2023-09-19T03:57:36;101349.09;;;20.47;100.00
9764;BME280;4921;43.214;27.936;2023-09-19T04:00:05;101349.94;;;20.47;100.00
9764;BME280;4921;43.214;27.936;2023-09-19T04:02:38;101350.25;;;20.44;100.00
9764;BME280;4921;43.214;27.936;2023-09-19T04:05:05;101349.94;;;20.39;100.00
9764;BME280;4921;43.214;27.936;2023-09-19T04:07:33;101355.44;;;20.38;100.00
9764;BME280;4921;43.214;27.936;2023-09-19T04:10:00;101347.94;;;20.41;100.00
9764;BME280;4921;43.214;27.936;2023-09-19T04:12:28;101345.25;;;20.41;100.00
9764;BME280;4921;43.214;27.936;2023-09-19T04:14:55;101331.72;;;20.35;100.00
9764;BME280;4921;43.214;27.936;2023-09-19T04:17:22;101344.59;;;20.47;100.00
9764;BME280;4921;43.214;27.936;2023-09-19T04:19:50;101332.25;;;20.46;100.00
9764;BME280;4921;43.214;27.936;2023-09-19T04:22:19;101334.88;;;20.63;100.00
9764;BME280;4921;43.214;27.936;2023-09-19T04:24:45;101331.19;;;20.72;100.00
9764;BME280;4921;43.214;27.936;2023-09-19T04:27:12;101329.66;;;20.77;100.00
9764;BME280;4921;43.214;27.936;2023-09-19T04:29:40;101321.97;;;20.82;100.00
9764;BME280;4921;43.214;27.936;2023-09-19T04:32:08;101320.28;;;20.89;100.00
9764;BME280;4921;43.214;27.936;2023-09-19T04:34:35;101319.59;;;20.95;100.00
9764;BME280;4921;43.214;27.936;2023-09-19T04:37:05;101332.97;;;21.03;100.00
9764;BME280;4921;43.214;27.936;2023-09-19T04:39:32;101328.28;;;21.05;100.00
9764;BME280;4921;43.214;27.936;2023-09-19T04:41:59;101333.63;;;21.05;100.00
9764;BME280;4921;43.214;27.936;2023-09-19T04:44:26;101330.63;;;21.00;100.00
9764;BME280;4921;43.214;27.936;2023-09-19T04:46:53;101327.63;;;20.95;100.00
9764;BME280;4921;43.214;27.936;2023-09-19T04:49:20;101319.09;;;20.92;100.00
9764;BME280;4921;43.214;27.936;2023-09-19T04:51:47;101327.50;;;20.81;100.00
9764;BME280;4921;43.214;27.936;2023-09-19T04:54:15;101326.69;;;20.72;100.00
9764;BME280;4921;43.214;27.936;2023-09-19T04:56:43;101326.84;;;20.71;100.00
9764;BME280;4921;43.214;27.936;2023-09-19T04:59:10;101319.19;;;20.68;100.00
9764;BME280;4921;43.214;27.936;2023-09-19T05:01:37;101309.97;;;20.70;100.00
9764;BME280;4921;43.214;27.936;2023-09-19T05:04:04;101316.28;;;20.77;100.00
9764;BME280;4921;43.214;27.936;2023-09-19T05:06:31;101310.25;;;20.83;100.00
9764;BME280;4921;43.214;27.936;2023-09-19T05:08:59;101314.28;;;20.87;100.00
9764;BME280;4921;43.214;27.936;2023-09-19T05:11:27;101308.06;;;20.95;100.00
9764;BME280;4921;43.214;27.936;2023-09-19T05:13:55;101303.56;;;21.03;100.00
9764;BME280;4921;43.214;27.936;2023-09-19T05:16:22;101298.16;;;21.11;100.00
9764;BME280;4921;43.214;27.936;2023-09-19T05:18:49;101298.81;;;21.21;100.00
9764;BME280;4921;43.214;27.936;2023-09-19T05:21:16;101299.88;;;21.35;100.00
9764;BME280;4921;43.214;27.936;2023-09-19T05:23:44;101303.66;;;21.49;100.00
9764;BME280;4921;43.214;27.936;2023-09-19T05:26:11;101301.59;;;21.59;100.00
9764;BME280;4921;43.214;27.936;2023-09-19T05:28:39;101297.09;;;21.59;100.00
9764;BME280;4921;43.214;27.936;2023-09-19T05:31:06;101295.91;;;21.62;100.00
9764;BME280;4921;43.214;27.936;2023-09-19T05:33:33;101299.16;;;21.72;100.00
9764;BME280;4921;43.214;27.936;2023-09-19T05:36:00;101299.47;;;21.77;100.00
9764;BME280;4921;43.214;27.936;2023-09-19T05:38:27;101299.63;;;21.83;100.00
9764;BME280;4921;43.214;27.936;2023-09-19T05:40:54;101309.09;;;21.94;100.00
9764;BME280;4921;43.214;27.936;2023-09-19T05:43:21;101303.69;;;22.02;100.00
9764;BME280;4921;43.214;27.936;2023-09-19T05:45:49;101297.50;;;22.02;100.00
9764;BME280;4921;43.214;27.936;2023-09-19T05:48:17;101293.91;;;22.09;100.00
9764;BME280;4921;43.214;27.936;2023-09-19T05:50:46;101298.00;;;22.20;100.00
9764;BME280;4921;43.214;27.936;2023-09-19T05:53:14;101290.72;;;22.28;100.00
9764;BME280;4921;43.214;27.936;2023-09-19T05:55:41;101295.84;;;22.38;100.00
9764;BME280;4921;43.214;27.936;2023-09-19T05:58:08;101295.75;;;22.46;100.00
9764;BME280;4921;43.214;27.936;2023-09-19T06:00:35;101297.53;;;22.53;100.00
9764;BME280;4921;43.214;27.936;2023-09-19T06:03:04;101296.84;;;22.59;100.00
9764;BME280;4921;43.214;27.936;2023-09-19T06:05:31;101305.63;;;22.68;100.00
9764;BME280;4921;43.214;27.936;2023-09-19T06:07:58;101310.06;;;22.75;100.00
9764;BME280;4921;43.214;27.936;2023-09-19T06:10:26;101311.34;;;22.80;100.00
9764;BME280;4921;43.214;27.936;2023-09-19T06:12:54;101306.28;;;22.85;100.00
9764;BME280;4921;43.214;27.936;2023-09-19T06:15:23;101312.94;;;22.89;100.00
9764;BME280;4921;43.214;27.936;2023-09-19T06:17:52;101319.97;;;22.90;100.00
9764;BME280;4921;43.214;27.936;2023-09-19T06:20:22;101319.88;;;22.98;100.00
9764;BME280;4921;43.214;27.936;2023-09-19T06:22:49;101314.59;;;23.04;99.53
9764;BME280;4921;43.214;27.936;2023-09-19T06:25:17;101316.53;;;23.10;98.47
9764;BME280;4921;43.214;27.936;2023-09-19T06:27:45;101321.34;;;23.15;97.64
9764;BME280;4921;43.214;27.936;2023-09-19T06:30:13;101323.84;;;23.16;98.05
9764;BME280;4921;43.214;27.936;2023-09-19T06:32:40;101313.59;;;23.20;97.81
9764;BME280;4921;43.214;27.936;2023-09-19T06:35:10;101321.25;;;23.23;97.42
9764;BME280;4921;43.214;27.936;2023-09-19T06:37:38;101325.59;;;23.24;97.36
9764;BME280;4921;43.214;27.936;2023-09-19T06:40:08;101323.00;;;23.30;97.10
9764;BME280;4921;43.214;27.936;2023-09-19T06:42:39;101324.31;;;23.34;96.19
9764;BME280;4921;43.214;27.936;2023-09-19T06:45:08;101335.34;;;23.39;95.70
9764;BME280;4921;43.214;27.936;2023-09-19T06:47:37;101328.38;;;23.45;94.74
9764;BME280;4921;43.214;27.936;2023-09-19T06:50:04;101333.38;;;23.48;94.50
9764;BME280;4921;43.214;27.936;2023-09-19T06:52:34;101323.19;;;23.43;94.40
9764;BME280;4921;43.214;27.936;2023-09-19T06:55:03;101338.44;;;23.58;94.54
9764;BME280;4921;43.214;27.936;2023-09-19T06:57:32;101334.75;;;23.59;94.11
9764;BME280;4921;43.214;27.936;2023-09-19T06:59:59;101338.72;;;23.63;93.44
9764;BME280;4921;43.214;27.936;2023-09-19T07:02:27;101330.94;;;23.68;93.63
9764;BME280;4921;43.214;27.936;2023-09-19T07:04:54;101332.00;;;23.73;96.68
9764;BME280;4921;43.214;27.936;2023-09-19T07:09:56;101334.69;;;23.73;94.42
9764;BME280;4921;43.214;27.936;2023-09-19T07:12:24;101336.97;;;23.55;95.20
9764;BME280;4921;43.214;27.936;2023-09-19T07:14:51;101330.38;;;23.58;92.45
9764;BME280;4921;43.214;27.936;2023-09-19T07:17:18;101334.47;;;23.54;97.34
9764;BME280;4921;43.214;27.936;2023-09-19T07:19:47;101332.94;;;23.80;95.36
9764;BME280;4921;43.214;27.936;2023-09-19T07:22:14;101336.19;;;23.97;93.89
9764;BME280;4921;43.214;27.936;2023-09-19T07:24:41;101332.22;;;23.93;94.29
9764;BME280;4921;43.214;27.936;2023-09-19T07:27:08;101328.09;;;24.11;93.11
9764;BME280;4921;43.214;27.936;2023-09-19T07:29:36;101328.22;;;24.24;92.03
9764;BME280;4921;43.214;27.936;2023-09-19T07:32:05;101326.78;;;24.29;90.21
9764;BME280;4921;43.214;27.936;2023-09-19T07:34:35;101326.84;;;24.35;91.38
9764;BME280;4921;43.214;27.936;2023-09-19T07:37:04;101328.53;;;24.36;88.69
9764;BME280;4921;43.214;27.936;2023-09-19T07:39:32;101327.56;;;24.22;90.49
9764;BME280;4921;43.214;27.936;2023-09-19T07:41:59;101330.78;;;24.11;88.12
9764;BME280;4921;43.214;27.936;2023-09-19T07:44:27;101321.88;;;24.32;81.96
9764;BME280;4921;43.214;27.936;2023-09-19T07:46:56;101324.78;;;24.37;79.34
9764;BME280;4921;43.214;27.936;2023-09-19T07:49:24;101322.00;;;24.24;81.05
9764;BME280;4921;43.214;27.936;2023-09-19T07:51:51;101335.16;;;24.12;80.38
9764;BME280;4921;43.214;27.936;2023-09-19T07:54:20;101320.16;;;24.24;85.95
9764;BME280;4921;43.214;27.936;2023-09-19T07:56:47;101319.31;;;24.24;83.47
9764;BME280;4921;43.214;27.936;2023-09-19T07:59:15;101311.91;;;24.26;82.87
9764;BME280;4921;43.214;27.936;2023-09-19T08:01:43;101310.28;;;24.32;82.94
9764;BME280;4921;43.214;27.936;2023-09-19T08:04:12;101317.91;;;24.28;81.15
9764;BME280;4921;43.214;27.936;2023-09-19T08:06:39;101308.88;;;24.36;84.54
9764;BME280;4921;43.214;27.936;2023-09-19T08:09:06;101316.19;;;24.48;77.77
9764;BME280;4921;43.214;27.936;2023-09-19T08:11:37;101308.59;;;24.52;77.82
9764;BME280;4921;43.214;27.936;2023-09-19T08:14:04;101310.34;;;24.66;78.22
9764;BME280;4921;43.214;27.936;2023-09-19T08:16:33;101306.31;;;24.55;73.52
9764;BME280;4921;43.214;27.936;2023-09-19T08:19:00;101301.38;;;24.59;76.32
9764;BME280;4921;43.214;27.936;2023-09-19T08:21:29;101288.72;;;24.53;72.41
9764;BME280;4921;43.214;27.936;2023-09-19T08:23:57;101303.69;;;24.62;73.96
9764;BME280;4921;43.214;27.936;2023-09-19T08:26:24;101309.28;;;24.60;71.57
9764;BME280;4921;43.214;27.936;2023-09-19T08:28:52;101304.78;;;24.74;72.58
9764;BME280;4921;43.214;27.936;2023-09-19T08:31:21;101302.91;;;24.68;72.70
9764;BME280;4921;43.214;27.936;2023-09-19T08:33:49;101309.91;;;24.62;74.55
9764;BME280;4921;43.214;27.936;2023-09-19T08:36:18;101300.47;;;24.45;72.57
9764;BME280;4921;43.214;27.936;2023-09-19T08:38:47;101298.25;;;24.55;72.53
9764;BME280;4921;43.214;27.936;2023-09-19T08:41:17;101302.69;;;24.69;72.46
9764;BME280;4921;43.214;27.936;2023-09-19T08:43:47;101298.34;;;24.68;76.31
9764;BME280;4921;43.214;27.936;2023-09-19T08:46:18;101298.91;;;24.57;72.48
9764;BME280;4921;43.214;27.936;2023-09-19T08:48:54;101287.28;;;24.57;77.17
9764;BME280;4921;43.214;27.936;2023-09-19T08:51:27;101282.47;;;24.46;73.20
9764;BME280;4921;43.214;27.936;2023-09-19T08:54:03;101289.19;;;24.35;74.60
9764;BME280;4921;43.214;27.936;2023-09-19T08:56:32;101290.00;;;24.29;81.33
9764;BME280;4921;43.214;27.936;2023-09-19T08:59:02;101283.97;;;24.27;82.19
9764;BME280;4921;43.214;27.936;2023-09-19T09:01:31;101264.69;;;24.02;78.76
9764;BME280;4921;43.214;27.936;2023-09-19T09:03:58;101278.34;;;24.22;81.11
9764;BME280;4921;43.214;27.936;2023-09-19T09:06:26;101287.50;;;24.28;75.78
9764;BME280;4921;43.214;27.936;2023-09-19T09:08:54;101275.09;;;24.05;72.54
9764;BME280;4921;43.214;27.936;2023-09-19T09:11:22;101270.78;;;24.32;74.47
9764;BME280;4921;43.214;27.936;2023-09-19T09:13:50;101272.22;;;24.28;74.96
9764;BME280;4921;43.214;27.936;2023-09-19T09:16:17;101263.78;;;24.38;74.77
9764;BME280;4921;43.214;27.936;2023-09-19T09:18:44;101264.38;;;24.33;74.82
9764;BME280;4921;43.214;27.936;2023-09-19T09:21:12;101260.88;;;24.39;73.10
9764;BME280;4921;43.214;27.936;2023-09-19T09:23:41;101262.47;;;24.55;77.79
9764;BME280;4921;43.214;27.936;2023-09-19T09:26:08;101265.97;;;24.55;75.43
9764;BME280;4921;43.214;27.936;2023-09-19T09:28:44;101259.59;;;24.63;76.74
9764;BME280;4921;43.214;27.936;2023-09-19T09:31:23;101261.38;;;24.77;77.79
9764;BME280;4921;43.214;27.936;2023-09-19T09:33:53;101265.13;;;24.82;77.38
9764;BME280;4921;43.214;27.936;2023-09-19T09:36:34;101267.66;;;24.84;74.42
9764;BME280;4921;43.214;27.936;2023-09-19T09:39:02;101258.31;;;24.80;74.49
9764;BME280;4921;43.214;27.936;2023-09-19T09:41:41;101264.75;;;24.85;74.21
9764;BME280;4921;43.214;27.936;2023-09-19T09:44:17;101261.91;;;24.66;76.17
9764;BME280;4921;43.214;27.936;2023-09-19T09:46:45;101255.16;;;24.76;76.73
9764;BME280;4921;43.214;27.936;2023-09-19T09:49:48;101250.69;;;24.90;77.84
9764;BME280;4921;43.214;27.936;2023-09-19T09:52:19;101243.00;;;24.87;77.38
9764;BME280;4921;43.214;27.936;2023-09-19T09:54:59;101239.38;;;24.67;75.36
9764;BME280;4921;43.214;27.936;2023-09-19T09:57:27;101250.84;;;24.75;74.93
9764;BME280;4921;43.214;27.936;2023-09-19T09:59:58;101241.53;;;24.84;74.32
9764;BME280;4921;43.214;27.936;2023-09-19T10:02:42;101236.69;;;24.67;77.62
9764;BME280;4921;43.214;27.936;2023-09-19T10:05:13;101244.84;;;24.52;79.67
9764;BME280;4921;43.214;27.936;2023-09-19T10:07:47;101240.06;;;24.75;78.75
9764;BME280;4921;43.214;27.936;2023-09-19T10:10:30;101239.34;;;24.94;79.43
9764;BME280;4921;43.214;27.936;2023-09-19T10:13:05;101235.16;;;24.85;77.80
9764;BME280;4921;43.214;27.936;2023-09-19T10:15:36;101237.88;;;24.92;78.65
9764;BME280;4921;43.214;27.936;2023-09-19T10:18:07;101230.91;;;25.11;79.08
9764;BME280;4921;43.214;27.936;2023-09-19T10:20:36;101229.44;;;25.15;75.11
9764;BME280;4921;43.214;27.936;2023-09-19T10:23:06;101236.66;;;24.94;76.43
9764;BME280;4921;43.214;27.936;2023-09-19T10:25:38;101234.13;;;24.59;78.03
9764;BME280;4921;43.214;27.936;2023-09-19T10:28:06;101228.13;;;24.57;79.64
9764;BME280;4921;43.214;27.936;2023-09-19T10:30:43;101233.06;;;24.53;84.40
9764;BME280;4921;43.214;27.936;2023-09-19T10:33:11;101237.31;;;24.69;83.61
9764;BME280;4921;43.214;27.936;2023-09-19T10:35:39;101231.66;;;24.57;84.94
9764;BME280;4921;43.214;27.936;2023-09-19T10:38:09;101230.00;;;24.56;85.58
9764;BME280;4921;43.214;27.936;2023-09-19T10:40:38;101224.00;;;24.61;84.32
9764;BME280;4921;43.214;27.936;2023-09-19T10:43:12;101227.34;;;24.69;84.55
9764;BME280;4921;43.214;27.936;2023-09-19T10:45:42;101229.50;;;24.46;88.28
9764;BME280;4921;43.214;27.936;2023-09-19T10:48:12;101224.44;;;24.30;86.84
9764;BME280;4921;43.214;27.936;2023-09-19T10:50:47;101208.00;;;24.46;86.88
9764;BME280;4921;43.214;27.936;2023-09-19T10:53:16;101217.53;;;24.49;85.95
9764;BME280;4921;43.214;27.936;2023-09-19T10:55:50;101209.31;;;24.63;86.74
9764;BME280;4921;43.214;27.936;2023-09-19T10:58:27;101207.22;;;24.59;83.44
9764;BME280;4921;43.214;27.936;2023-09-19T11:00:58;101205.53;;;24.51;85.12
9764;BME280;4921;43.214;27.936;2023-09-19T11:03:38;101207.66;;;24.56;87.76
9764;BME280;4921;43.214;27.936;2023-09-19T11:06:11;101195.03;;;24.56;87.91
9764;BME280;4921;43.214;27.936;2023-09-19T11:08:59;101192.28;;;24.84;85.89
9764;BME280;4921;43.214;27.936;2023-09-19T11:11:50;101196.91;;;25.03;84.29
9764;BME280;4921;43.214;27.936;2023-09-19T11:14:41;101187.22;;;25.15;85.49
9764;BME280;4921;43.214;27.936;2023-09-19T11:17:42;101186.44;;;25.34;83.48
9764;BME280;4921;43.214;27.936;2023-09-19T11:20:26;101172.16;;;25.34;81.82
9764;BME280;4921;43.214;27.936;2023-09-19T11:23:20;101171.09;;;25.35;82.15
9764;BME280;4921;43.214;27.936;2023-09-19T11:25:51;101177.28;;;25.22;85.85
9764;BME280;4921;43.214;27.936;2023-09-19T11:31:42;101176.75;;;25.46;89.12
9764;BME280;4921;43.214;27.936;2023-09-19T11:34:43;101172.63;;;25.50;91.44
9764;BME280;4921;43.214;27.936;2023-09-19T11:40:52;101178.16;;;25.36;85.33
9764;BME280;4921;43.214;27.936;2023-09-19T11:43:36;101185.25;;;25.43;83.16
9764;BME280;4921;43.214;27.936;2023-09-19T11:46:08;101176.94;;;25.45;86.51
9764;BME280;4921;43.214;27.936;2023-09-19T11:48:39;101179.41;;;25.33;85.04
9764;BME280;4921;43.214;27.936;2023-09-19T11:51:16;101165.94;;;25.40;86.12
9764;BME280;4921;43.214;27.936;2023-09-19T11:53:53;101176.91;;;25.32;83.37
9764;BME280;4921;43.214;27.936;2023-09-19T11:56:22;101164.69;;;25.29;85.92
9764;BME280;4921;43.214;27.936;2023-09-19T11:58:52;101154.22;;;24.93;92.59
9764;BME280;4921;43.214;27.936;2023-09-19T12:01:26;101148.66;;;24.95;92.67
9764;BME280;4921;43.214;27.936;2023-09-19T12:03:56;101151.38;;;25.21;91.76
9764;BME280;4921;43.214;27.936;2023-09-19T12:06:27;101151.34;;;25.08;89.23
9764;BME280;4921;43.214;27.936;2023-09-19T12:08:55;101148.91;;;25.20;87.71
9764;BME280;4921;43.214;27.936;2023-09-19T12:11:28;101152.03;;;25.36;85.95
9764;BME280;4921;43.214;27.936;2023-09-19T12:13:59;101156.81;;;25.34;87.77
9764;BME280;4921;43.214;27.936;2023-09-19T12:16:26;101157.63;;;25.28;88.91
9764;BME280;4921;43.214;27.936;2023-09-19T12:18:57;101148.09;;;25.26;89.76
9764;BME280;4921;43.214;27.936;2023-09-19T12:21:27;101140.63;;;25.21;92.02
9764;BME280;4921;43.214;27.936;2023-09-19T12:24:13;101143.50;;;25.07;94.65
9764;BME280;4921;43.214;27.936;2023-09-19T12:26:45;101142.00;;;24.97;97.66
9764;BME280;4921;43.214;27.936;2023-09-19T12:29:14;101146.22;;;25.20;94.23
9764;BME280;4921;43.214;27.936;2023-09-19T12:31:53;101144.31;;;25.01;92.86
9764;BME280;4921;43.214;27.936;2023-09-19T12:34:24;101142.94;;;24.70;93.88
9764;BME280;4921;43.214;27.936;2023-09-19T12:37:08;101127.13;;;24.54;97.03
9764;BME280;4921;43.214;27.936;2023-09-19T12:39:42;101137.34;;;24.72;99.64
9764;BME280;4921;43.214;27.936;2023-09-19T12:42:15;101141.31;;;24.76;97.35
9764;BME280;4921;43.214;27.936;2023-09-19T12:44:43;101122.53;;;24.89;96.01
9764;BME280;4921;43.214;27.936;2023-09-19T12:47:12;101137.41;;;24.78;97.10
9764;BME280;4921;43.214;27.936;2023-09-19T12:50:10;101134.13;;;24.89;94.89
9764;BME280;4921;43.214;27.936;2023-09-19T12:52:46;101125.69;;;25.06;95.22
9764;BME280;4921;43.214;27.936;2023-09-19T12:55:22;101123.19;;;25.11;96.42
9764;BME280;4921;43.214;27.936;2023-09-19T12:57:59;101124.22;;;24.96;100.00
9764;BME280;4921;43.214;27.936;2023-09-19T13:00:38;101119.69;;;25.04;98.13
9764;BME280;4921;43.214;27.936;2023-09-19T13:03:12;101095.03;;;25.00;94.23
9764;BME280;4921;43.214;27.936;2023-09-19T13:05:51;101120.47;;;24.97;95.65
9764;BME280;4921;43.214;27.936;2023-09-19T13:08:25;101107.13;;;24.70;98.49
9764;BME280;4921;43.214;27.936;2023-09-19T13:11:09;101115.66;;;24.73;97.36
9764;BME280;4921;43.214;27.936;2023-09-19T13:13:40;101107.63;;;24.39;100.00
9764;BME280;4921;43.214;27.936;2023-09-19T13:16:07;101112.56;;;24.36;100.00
9764;BME280;4921;43.214;27.936;2023-09-19T13:18:48;101101.78;;;24.29;100.00
9764;BME280;4921;43.214;27.936;2023-09-19T13:21:28;101111.31;;;24.32;100.00
9764;BME280;4921;43.214;27.936;2023-09-19T13:24:19;101116.69;;;24.32;100.00
9764;BME280;4921;43.214;27.936;2023-09-19T13:26:46;101112.72;;;24.21;100.00